STN weather

London Stansted Airport
London, England, United Kingdom

Public forecast

Using degrees Celsius for public forecast. Weather courtesy of forecast.io.

METAR (pilot weather report)

Retrieved 2017/07/23 04:20 UTC (0 seconds ago):

EGSS 230420Z AUTO 28002KT 4400 BR NCD 12/11 Q1009

TAF (pilot weather forecast)

Forecast is more than 12 hours old.

Retrieved 2017/07/22 00:30 UTC (1 day ago):

TAF COR EGSS 222328Z 2300/2406 19009KT 9999 BKN014 BECMG 2300/2302 7000 PROB30 2301/2307 3000 BR BKN005 BECMG 2303/2306 26010KT BECMG 2307/2309 9999 SCT030 TEMPO 2309/2321 7000 SHRA PROB30 TEMPO 2315/2320 4000 +TSRA BECMG 2400/2403 32012KT BKN010 TEMPO 2402/2406 6000 RA BKN005